Martin, Utah
Current Conditions -  °F | °C
As of 10:53 AM on Saturday 20 Dec 2014 (Local Time) from KPUC Reporting Station
Overcast Overcast  
Wind Chill: 25°   Ceiling: 2000
Heat Index: 31°   Visibility: 10mi
Dew Point: 24°   Wind: 6mph
Humidity: 76%   Direction: 100°E
Pressure: 30.17"   Gusts: NA
Location:  39.7304°N, 110.917°W
Report Text: KPUC 201753Z AUTO 10005KT 10SM OVC020 M01/M04 A3017 RMK AO2 SLP258 T10061044 11006 21033 50006
Loading
Personal Weather Stations






























Interactive Weather Map New forecast layout! Learn more

10-Day Weather Forecast

Advertisements
Track Severe Weather on mobile